Hyalite Weather Station

This weather station provides temperature, wind speed, gust or max wind speed, and wind direction at 9982ft near the summit of Flanders Mountain. This data can be used with temperature and precipitation data from the Shower Falls SNOTEL site. If the data has not been updated recently you can view it directly on datagarrison.com

Elevation
9982ft
Jump to table bottom
Date Time Temperature
deg F
RH, % Wind Speed Wind Gust Wind Direction
02/08/23 18:00 5.4 82 13 28 W - 291
02/08/23 17:00 5.1 82 14 28 W - 284
02/08/23 16:00 5.4 82 11 27 NW - 298
02/08/23 15:00 6.1 82 13 26 W - 282
02/08/23 14:00 5.2 82 17 33 W - 275
02/08/23 13:00 5.4 82 17 33 W - 278
02/08/23 12:00 5.3 82 21 42 W - 271
02/08/23 11:00 5.3 82 17 29 W - 277
02/08/23 10:00 6.7 82 17 30 W - 275
02/08/23 09:00 8.0 82 18 34 W - 279
02/08/23 08:00 9.5 82 10 30 NW - 293
02/08/23 07:00 11.5 82 15 34 W - 267
02/08/23 06:00 12.7 80 22 34 W - 256
02/08/23 05:00 13.3 81 27 42 W - 260
02/08/23 04:00 13.6 79 30 48 W - 250
02/08/23 03:00 14.3 79 31 51 W - 253
02/08/23 02:00 14.5 82 32 49 W - 251
02/08/23 01:00 15.6 81 26 36 W - 256
02/08/23 00:00 15.7 82 26 37 W - 254
02/07/23 23:00 17.4 78 21 40 W - 248
02/07/23 22:00 19.1 74 30 44 W - 250
02/07/23 21:00 20.0 71 30 46 W - 251
02/07/23 20:00 20.6 71 31 44 W - 254
02/07/23 19:00 20.1 75 24 34 W - 254
02/07/23 18:00 20.3 73 18 27 W - 253
02/07/23 17:00 20.4 71 15 22 W - 256
02/07/23 16:00 23.0 65 15 24 W - 257
02/07/23 15:00 24.0 66 14 24 W - 250
02/07/23 14:00 21.9 70 14 26 W - 260
02/07/23 13:00 22.1 72 15 40 W - 274
02/07/23 12:00 21.0 73 19 33 W - 270
02/07/23 11:00 19.9 78 18 32 W - 263
02/07/23 10:00 17.2 83 17 28 W - 258
02/07/23 09:00 16.5 83 23 41 W - 272
02/07/23 08:00 15.5 83 22 43 W - 272
02/07/23 07:00 15.4 83 24 38 W - 260
02/07/23 06:00 15.0 83 20 36 W - 268
02/07/23 05:00 15.6 83 21 33 W - 263
02/07/23 04:00 15.5 83 20 37 W - 267
02/07/23 03:00 14.5 83 18 35 W - 268
02/07/23 02:00 14.3 83 17 29 W - 263
02/07/23 01:00 14.2 83 19 31 W - 260
02/07/23 00:00 14.3 83 19 30 W - 264
02/06/23 23:00 14.3 83 17 31 W - 277
02/06/23 22:00 14.3 83 20 36 W - 268
02/06/23 21:00 14.1 83 18 31 W - 267
02/06/23 20:00 14.1 83 20 31 W - 263
02/06/23 19:00 14.0 83 20 35 W - 271
02/06/23 18:00 13.6 83 20 30 W - 270
02/06/23 17:00 13.7 83 20 39 W - 275